Time;durP1;ratioP1;P1;durP2;ratioP2;P2;SDS_P1;SDS_P2;PMS_P1;PMS_P2;Temp;Humidity;BMP_temperature;BMP_pressure;BME280_temperature;BME280_humidity;BME280_pressure;Samples;Min_cycle;Max_cycle;Signal;HPM_P1;HPM_P2
2023/09/11 00:01:15;;;;;;;;;;;;;;;;;;5111514;28;19908;-69
2023/09/11 00:05:57;;;;;;;;;;;;;;;;;;5153122;27;20010;-68
2023/09/11 00:08:23;;;;;;;;;;;;;;;;;;5152466;27;19954;-69
2023/09/11 00:10:49;;;;;;;;;;;;;;;;;;5153035;27;19932;-69
2023/09/11 00:17:46;;;;;;;;;;;;;;;;;;5091866;27;20398;-69
2023/09/11 00:20:12;;;;;;;;;;;;;;;;;;5091391;28;20010;-69
2023/09/11 00:22:38;;;;;;;;;;;;;;;;;;5090968;28;20390;-69
2023/09/11 00:28:21;;;;;;;;;;;;;;;;;;5091833;27;19939;-69
2023/09/11 00:30:47;;;;;;;;;;;;;;;;;;5090980;28;20427;-70
2023/09/11 00:33:13;;;;;;;;;;;;;;;;;;5091286;28;19961;-69
2023/09/11 00:35:39;;;;;;;;;;;;;;;;;;5091267;28;19910;-70
2023/09/11 00:39:31;;;;;;;;;;;;;;;;;;5111960;27;19923;-69
2023/09/11 00:41:57;;;;;;;;;;;;;;;;;;5111726;28;20015;-69
2023/09/11 00:44:24;;;;;;;;;;;;;;;;;;5111263;28;19954;-68
2023/09/11 00:46:50;;;;;;;;;;;;;;;;;;5111656;28;20006;-69
2023/09/11 00:59:35;;;;;;;;;;;;;;;;;;5152595;27;19976;-71
2023/09/11 01:02:01;;;;;;;;;;;;;;;;;;5134721;27;20344;-71
2023/09/11 01:04:28;;;;;;;;;;;;;;;;;;5134354;27;19915;-69
2023/09/11 01:10:33;;;;;;;;;;;;;;;;;;5112570;27;19917;-69
2023/09/11 01:14:58;;;;;;;;;;;;;;;;;;5112174;27;19916;-71
2023/09/11 01:17:25;;;;;;;;;;;;;;;;;;5111754;28;20332;-71
2023/09/11 01:19:51;;;;;;;;;;;;;;;;;;5111278;28;19915;-68
2023/09/11 01:24:50;;;;;;;;;;;;;;;;;;5091545;28;19917;-70
2023/09/11 01:27:16;;;;;;;;;;;;;;;;;;5089630;28;19912;-69
2023/09/11 01:29:42;;;;;;;;;;;;;;;;;;5091286;28;19908;-69
2023/09/11 01:35:36;;;;;;;;;;;;;;;;;;5091904;27;19912;-69
2023/09/11 01:38:02;;;;;;;;;;;;;;;;;;5091606;28;20003;-69
2023/09/11 01:46:16;;;;;;;;;;;;;;;;;;5091437;28;20296;-68
2023/09/11 01:49:14;;;;;;;;;;;;;;;;;;5111868;27;19916;-70
2023/09/11 01:51:40;;;;;;;;;;;;;;;;;;5111732;28;19934;-69
2023/09/11 01:58:39;;;;;;;;;;;;;;;;;;5092180;27;19916;-69
2023/09/11 02:03:10;;;;;;;;;;;;;;;;;;5091271;27;19912;-68
2023/09/11 02:07:23;;;;;;;;;;;;;;;;;;5111689;27;19922;-69
2023/09/11 02:09:49;;;;;;;;;;;;;;;;;;5111318;28;20438;-69
2023/09/11 02:12:15;;;;;;;;;;;;;;;;;;5111665;28;19908;-69
2023/09/11 02:15:32;;;;;;;;;;;;;;;;;;5111618;27;20298;-68
2023/09/11 02:17:58;;;;;;;;;;;;;;;;;;5111831;28;20003;-68
2023/09/11 02:20:24;;;;;;;;;;;;;;;;;;5111601;28;19908;-69
2023/09/11 02:22:50;;;;;;;;;;;;;;;;;;5110029;28;19912;-68
2023/09/11 02:25:51;;;;;;;;;;;;;;;;;;5112435;27;20291;-69
2023/09/11 02:28:17;;;;;;;;;;;;;;;;;;5111714;28;20334;-70
2023/09/11 02:30:43;;;;;;;;;;;;;;;;;;5109996;28;19954;-69
2023/09/11 02:33:09;;;;;;;;;;;;;;;;;;5111830;28;19915;-69
2023/09/11 02:35:35;;;;;;;;;;;;;;;;;;5111555;28;20280;-69
2023/09/11 02:38:01;;;;;;;;;;;;;;;;;;5111197;28;19915;-69
2023/09/11 02:40:27;;;;;;;;;;;;;;;;;;5111386;28;19995;-69
2023/09/11 02:46:46;;;;;;;;;;;;;;;;;;5112625;27;19918;-69
2023/09/11 02:49:12;;;;;;;;;;;;;;;;;;5111831;28;20015;-69
2023/09/11 02:55:40;;;;;;;;;;;;;;;;;;5153518;27;20006;-69
2023/09/11 02:58:06;;;;;;;;;;;;;;;;;;5152565;27;19933;-69
2023/09/11 03:01:05;;;;;;;;;;;;;;;;;;5091488;27;19913;-69
2023/09/11 03:03:31;;;;;;;;;;;;;;;;;;5091231;28;20436;-68
2023/09/11 03:06:27;;;;;;;;;;;;;;;;;;5090846;27;19918;-70
2023/09/11 03:08:53;;;;;;;;;;;;;;;;;;5091392;28;19994;-69
2023/09/11 03:11:19;;;;;;;;;;;;;;;;;;5091411;28;19909;-70
2023/09/11 03:14:44;;;;;;;;;;;;;;;;;;5111655;27;20299;-68
2023/09/11 03:17:12;;;;;;;;;;;;;;;;;;5111749;28;20007;-70
2023/09/11 03:19:38;;;;;;;;;;;;;;;;;;5111221;28;19908;-70
2023/09/11 03:24:42;;;;;;;;;;;;;;;;;;5112055;27;20372;-71
2023/09/11 03:27:08;;;;;;;;;;;;;;;;;;5111297;28;19918;-70
2023/09/11 03:33:38;;;;;;;;;;;;;;;;;;5111557;27;19920;-69
2023/09/11 03:36:04;;;;;;;;;;;;;;;;;;5111643;28;19999;-69
2023/09/11 03:38:30;;;;;;;;;;;;;;;;;;5111579;28;19908;-69
2023/09/11 03:40:56;;;;;;;;;;;;;;;;;;5111255;28;19908;-69
2023/09/11 03:43:22;;;;;;;;;;;;;;;;;;5111497;28;19960;-70
2023/09/11 03:46:42;;;;;;;;;;;;;;;;;;5111680;27;19912;-71
2023/09/11 03:49:08;;;;;;;;;;;;;;;;;;5111766;28;19918;-69
2023/09/11 03:51:34;;;;;;;;;;;;;;;;;;5111587;28;20368;-69
2023/09/11 03:54:00;;;;;;;;;;;;;;;;;;5111142;28;19957;-69
2023/09/11 03:56:26;;;;;;;;;;;;;;;;;;5111525;28;19961;-69
2023/09/11 04:00:30;;;;;;;;;;;;;;;;;;5111672;27;19922;-68
2023/09/11 04:06:02;;;;;;;;;;;;;;;;;;5091997;28;19916;-69
2023/09/11 04:08:28;;;;;;;;;;;;;;;;;;5090807;28;20002;-68
2023/09/11 04:10:54;;;;;;;;;;;;;;;;;;5091579;28;19954;-68
2023/09/11 04:13:20;;;;;;;;;;;;;;;;;;5089995;28;19908;-69
2023/09/11 04:16:25;;;;;;;;;;;;;;;;;;5091309;27;19916;-70
2023/09/11 04:19:48;;;;;;;;;;;;;;;;;;5111307;27;19912;-70
2023/09/11 04:22:14;;;;;;;;;;;;;;;;;;5109824;28;19934;-68
2023/09/11 04:24:40;;;;;;;;;;;;;;;;;;5110228;28;20257;-70
2023/09/11 04:27:06;;;;;;;;;;;;;;;;;;5111602;28;19912;-68
2023/09/11 04:29:32;;;;;;;;;;;;;;;;;;5110684;28;19960;-69
2023/09/11 04:35:26;;;;;;;;;;;;;;;;;;5109496;27;19923;-70
2023/09/11 04:37:52;;;;;;;;;;;;;;;;;;5109266;28;19912;-69
2023/09/11 04:40:18;;;;;;;;;;;;;;;;;;5109479;28;19912;-69
2023/09/11 04:44:17;;;;;;;;;;;;;;;;;;5109276;27;19922;-68
2023/09/11 04:50:03;;;;;;;;;;;;;;;;;;5091489;27;19923;-69
2023/09/11 04:52:55;;;;;;;;;;;;;;;;;;5111707;27;19916;-69
2023/09/11 04:57:19;;;;;;;;;;;;;;;;;;5111931;27;19923;-70
2023/09/11 04:59:45;;;;;;;;;;;;;;;;;;5111978;28;19912;-68
2023/09/11 05:03:04;;;;;;;;;;;;;;;;;;5132398;27;20538;-68
2023/09/11 05:14:08;;;;;;;;;;;;;;;;;;5089555;27;19920;-69
2023/09/11 05:18:56;;;;;;;;;;;;;;;;;;5089073;27;19917;-69
2023/09/11 05:22:06;;;;;;;;;;;;;;;;;;5109704;27;19923;-71
2023/09/11 05:26:06;;;;;;;;;;;;;;;;;;5109798;27;19916;-70
2023/09/11 05:28:32;;;;;;;;;;;;;;;;;;5108029;28;19916;-66
2023/09/11 05:30:58;;;;;;;;;;;;;;;;;;5108770;28;19934;-69
2023/09/11 05:33:24;;;;;;;;;;;;;;;;;;5107757;28;20011;-68
2023/09/11 05:40:00;;;;;;;;;;;;;;;;;;5081292;28;19916;-69
2023/09/11 05:42:26;;;;;;;;;;;;;;;;;;5090821;28;19948;-67
2023/09/11 05:46:34;;;;;;;;;;;;;;;;;;5102234;27;19934;-67
2023/09/11 05:51:28;;;;;;;;;;;;;;;;;;5087499;27;19982;-66
2023/09/11 05:53:54;;;;;;;;;;;;;;;;;;5087949;28;19924;-66
2023/09/11 05:56:20;;;;;;;;;;;;;;;;;;5082904;28;19939;-65
2023/09/11 05:58:46;;;;;;;;;;;;;;;;;;5086365;28;19920;-67
2023/09/11 06:01:13;;;;;;;;;;;;;;;;;;5081643;28;19913;-67
2023/09/11 06:03:39;;;;;;;;;;;;;;;;;;5100437;28;20016;-66
2023/09/11 06:06:05;;;;;;;;;;;;;;;;;;5068425;28;19944;-67
2023/09/11 06:08:32;;;;;;;;;;;;;;;;;;5089435;28;19939;-67
2023/09/11 06:10:59;;;;;;;;;;;;;;;;;;5122342;28;19916;-66
2023/09/11 06:17:27;;;;;;;;;;;;;;;;;;5108492;27;19919;-66
2023/09/11 06:21:22;;;;;;;;;;;;;;;;;;5095010;27;19920;-64
2023/09/11 06:24:37;;;;;;;;;;;;;;;;;;5107127;27;19920;-64
2023/09/11 06:29:19;;;;;;;;;;;;;;;;;;5108877;27;20277;-66
2023/09/11 06:33:30;;;;;;;;;;;;;;;;;;5171688;27;19919;-65
2023/09/11 06:36:30;;;;;;;;;;;;;;;;;;5152162;27;19922;-65
2023/09/11 06:40:09;;;;;;;;;;;;;;;;;;5108347;27;19916;-68
2023/09/11 06:42:35;;;;;;;;;;;;;;;;;;5087443;28;19956;-65
2023/09/11 06:45:01;;;;;;;;;;;;;;;;;;5088480;28;19959;-65
2023/09/11 06:50:16;;;;;;;;;;;;;;;;;;5089430;27;19927;-65
2023/09/11 06:52:42;;;;;;;;;;;;;;;;;;5089594;28;19912;-66
2023/09/11 06:55:53;;;;;;;;;;;;;;;;;;5109723;27;19912;-67
2023/09/11 06:58:19;;;;;;;;;;;;;;;;;;5109391;28;20455;-67
2023/09/11 07:00:45;;;;;;;;;;;;;;;;;;5104833;28;20006;-68
2023/09/11 07:04:46;;;;;;;;;;;;;;;;;;5130159;27;19916;-67
2023/09/11 07:07:11;;;;;;;;;;;;;;;;;;5127157;28;20014;-65
2023/09/11 07:09:37;;;;;;;;;;;;;;;;;;5127835;28;20582;-67
2023/09/11 07:12:03;;;;;;;;;;;;;;;;;;5126489;28;20461;-67
2023/09/11 07:16:22;;;;;;;;;;;;;;;;;;5106267;27;19920;-66
2023/09/11 07:20:38;;;;;;;;;;;;;;;;;;5084110;27;19923;-66
2023/09/11 07:26:24;;;;;;;;;;;;;;;;;;5085042;27;19917;-65
2023/09/11 07:30:27;;;;;;;;;;;;;;;;;;5097363;27;19923;-64
2023/09/11 07:35:36;;;;;;;;;;;;;;;;;;5068509;28;19916;-65
2023/09/11 07:38:02;;;;;;;;;;;;;;;;;;5065591;28;20371;-65
2023/09/11 07:40:28;;;;;;;;;;;;;;;;;;5067114;28;19909;-65
2023/09/11 07:42:55;;;;;;;;;;;;;;;;;;5075597;28;20431;-67
2023/09/11 07:45:25;;;;;;;;;;;;;;;;;;5068873;28;19913;-66
2023/09/11 07:47:51;;;;;;;;;;;;;;;;;;5068647;28;19913;-66
2023/09/11 07:50:17;;;;;;;;;;;;;;;;;;5067578;28;19917;-67
2023/09/11 07:52:43;;;;;;;;;;;;;;;;;;5068706;28;20012;-66
2023/09/11 07:55:30;;;;;;;;;;;;;;;;;;5089831;27;19921;-66
2023/09/11 07:57:56;;;;;;;;;;;;;;;;;;5076994;28;20372;-67
2023/09/11 08:02:03;;;;;;;;;;;;;;;;;;5172316;27;19917;-68
2023/09/11 08:04:29;;;;;;;;;;;;;;;;;;5150762;27;19911;-68
2023/09/11 08:06:55;;;;;;;;;;;;;;;;;;5156050;27;19926;-67
2023/09/11 08:09:21;;;;;;;;;;;;;;;;;;5153146;27;19915;-67
2023/09/11 08:11:47;;;;;;;;;;;;;;;;;;5141385;27;19951;-67
2023/09/11 08:17:39;;;;;;;;;;;;;;;;;;5104873;27;19912;-66
2023/09/11 08:21:54;;;;;;;;;;;;;;;;;;5105633;27;19916;-68
2023/09/11 08:25:21;;;;;;;;;;;;;;;;;;5083592;28;19925;-65
2023/09/11 08:28:43;;;;;;;;;;;;;;;;;;5123308;27;19916;-67
2023/09/11 08:31:09;;;;;;;;;;;;;;;;;;5120784;28;20535;-70
2023/09/11 08:33:35;;;;;;;;;;;;;;;;;;5110909;28;19977;-70
2023/09/11 08:36:01;;;;;;;;;;;;;;;;;;5130595;28;19980;-70
2023/09/11 08:38:27;;;;;;;;;;;;;;;;;;5112329;28;19915;-69
2023/09/11 08:41:22;;;;;;;;;;;;;;;;;;5148919;27;19919;-70
2023/09/11 08:43:48;;;;;;;;;;;;;;;;;;5114018;28;20089;-70
2023/09/11 08:48:34;;;;;;;;;;;;;;;;;;5054727;28;20049;-70
2023/09/11 08:51:00;;;;;;;;;;;;;;;;;;5058877;28;19913;-71
2023/09/11 08:53:26;;;;;;;;;;;;;;;;;;5035591;28;19913;-71
2023/09/11 08:55:52;;;;;;;;;;;;;;;;;;5045741;28;19913;-71
2023/09/11 09:00:28;;;;;;;;;;;;;;;;;;5105213;27;19912;-71
2023/09/11 09:02:54;;;;;;;;;;;;;;;;;;5103998;28;20345;-71
2023/09/11 09:05:19;;;;;;;;;;;;;;;;;;5104212;28;19916;-71
2023/09/11 09:07:46;;;;;;;;;;;;;;;;;;5105074;28;19969;-70
2023/09/11 09:10:12;;;;;;;;;;;;;;;;;;5104120;28;19961;-71
2023/09/11 09:12:38;;;;;;;;;;;;;;;;;;5105171;28;19922;-73
2023/09/11 09:15:04;;;;;;;;;;;;;;;;;;5105206;28;20325;-73
2023/09/11 09:17:30;;;;;;;;;;;;;;;;;;5108482;28;19958;-73
2023/09/11 09:19:56;;;;;;;;;;;;;;;;;;5109123;28;19920;-72
2023/09/11 09:22:22;;;;;;;;;;;;;;;;;;5110264;28;19915;-72
2023/09/11 09:24:48;;;;;;;;;;;;;;;;;;5108257;28;19920;-67
2023/09/11 09:27:14;;;;;;;;;;;;;;;;;;5118111;28;19998;-69
2023/09/11 09:29:40;;;;;;;;;;;;;;;;;;5112588;28;20344;-69
2023/09/11 09:32:06;;;;;;;;;;;;;;;;;;5108511;28;20057;-68
2023/09/11 09:34:32;;;;;;;;;;;;;;;;;;5098473;28;19912;-68
2023/09/11 09:36:58;;;;;;;;;;;;;;;;;;5092108;28;19919;-69
2023/09/11 09:39:28;;;;;;;;;;;;;;;;;;5084769;28;19920;-68
2023/09/11 09:41:54;;;;;;;;;;;;;;;;;;5100559;28;20068;-71
2023/09/11 09:44:20;;;;;;;;;;;;;;;;;;5105133;28;19966;-71
2023/09/11 09:46:46;;;;;;;;;;;;;;;;;;5104974;28;19920;-73
2023/09/11 09:49:12;;;;;;;;;;;;;;;;;;5105740;28;19963;-74
2023/09/11 09:51:38;;;;;;;;;;;;;;;;;;5117604;28;19912;-73
2023/09/11 09:54:04;;;;;;;;;;;;;;;;;;5106665;28;19931;-73
2023/09/11 09:56:30;;;;;;;;;;;;;;;;;;5098592;28;19944;-72
2023/09/11 09:58:56;;;;;;;;;;;;;;;;;;5105030;28;19937;-72
2023/09/11 10:01:22;;;;;;;;;;;;;;;;;;5097447;28;20406;-72
2023/09/11 10:03:48;;;;;;;;;;;;;;;;;;5093519;28;19916;-71
2023/09/11 10:06:14;;;;;;;;;;;;;;;;;;5107785;28;19980;-71
2023/09/11 10:08:40;;;;;;;;;;;;;;;;;;5104723;28;19951;-70
2023/09/11 10:11:06;;;;;;;;;;;;;;;;;;5097501;28;19908;-72
2023/09/11 10:13:32;;;;;;;;;;;;;;;;;;5094304;28;19916;-73
2023/09/11 10:15:59;;;;;;;;;;;;;;;;;;5094734;28;19932;-72
2023/09/11 10:18:25;;;;;;;;;;;;;;;;;;5085744;28;19985;-70
2023/09/11 10:20:51;;;;;;;;;;;;;;;;;;5091819;28;19916;-70
2023/09/11 10:23:17;;;;;;;;;;;;;;;;;;5105909;28;19915;-70
2023/09/11 10:25:43;;;;;;;;;;;;;;;;;;5098947;28;19908;-70
2023/09/11 10:28:09;;;;;;;;;;;;;;;;;;5099801;28;19918;-70
2023/09/11 10:30:35;;;;;;;;;;;;;;;;;;5113104;28;20007;-69
2023/09/11 10:33:01;;;;;;;;;;;;;;;;;;5087396;28;20243;-71
2023/09/11 10:35:27;;;;;;;;;;;;;;;;;;5094070;28;19986;-70
2023/09/11 10:37:56;;;;;;;;;;;;;;;;;;5091200;28;20332;-70
2023/09/11 10:40:22;;;;;;;;;;;;;;;;;;5079722;28;19943;-72
2023/09/11 10:42:48;;;;;;;;;;;;;;;;;;5086435;28;19912;-69
2023/09/11 10:45:14;;;;;;;;;;;;;;;;;;5109566;28;19965;-71
2023/09/11 10:47:40;;;;;;;;;;;;;;;;;;5099417;28;20001;-71
2023/09/11 10:50:06;;;;;;;;;;;;;;;;;;5101872;28;20003;-70
2023/09/11 10:52:32;;;;;;;;;;;;;;;;;;5091838;28;20011;-70
2023/09/11 10:54:58;;;;;;;;;;;;;;;;;;5093675;28;19908;-70
2023/09/11 10:57:24;;;;;;;;;;;;;;;;;;5092700;28;19934;-70
2023/09/11 10:59:50;;;;;;;;;;;;;;;;;;5090109;28;19942;-71
2023/09/11 11:02:17;;;;;;;;;;;;;;;;;;5089364;28;19908;-71
2023/09/11 11:04:42;;;;;;;;;;;;;;;;;;5090416;28;19908;-70
2023/09/11 11:07:09;;;;;;;;;;;;;;;;;;5091066;28;19915;-70
2023/09/11 11:09:38;;;;;;;;;;;;;;;;;;5090780;28;19915;-70
2023/09/11 11:12:04;;;;;;;;;;;;;;;;;;5093636;28;20376;-70
2023/09/11 11:14:30;;;;;;;;;;;;;;;;;;5093871;28;19909;-70
2023/09/11 11:16:56;;;;;;;;;;;;;;;;;;5088469;28;19919;-70
2023/09/11 11:19:22;;;;;;;;;;;;;;;;;;5090529;28;19924;-71
2023/09/11 11:21:48;;;;;;;;;;;;;;;;;;5090736;28;20356;-70
2023/09/11 11:24:14;;;;;;;;;;;;;;;;;;5092355;28;20337;-71
2023/09/11 11:26:40;;;;;;;;;;;;;;;;;;5094236;28;20329;-69
2023/09/11 11:29:06;;;;;;;;;;;;;;;;;;5089563;28;20276;-73
2023/09/11 11:31:32;;;;;;;;;;;;;;;;;;5089962;28;19908;-73
2023/09/11 11:33:58;;;;;;;;;;;;;;;;;;5092213;28;20362;-70
2023/09/11 11:36:24;;;;;;;;;;;;;;;;;;5104533;28;19920;-73
2023/09/11 11:38:50;;;;;;;;;;;;;;;;;;5091283;28;19920;-73
2023/09/11 11:41:16;;;;;;;;;;;;;;;;;;5091882;28;19961;-73
2023/09/11 11:43:42;;;;;;;;;;;;;;;;;;5093574;28;19918;-73
2023/09/11 11:46:08;;;;;;;;;;;;;;;;;;5093935;28;19912;-73
2023/09/11 11:48:37;;;;;;;;;;;;;;;;;;5092518;28;20360;-74
2023/09/11 11:51:03;;;;;;;;;;;;;;;;;;5072522;28;19919;-74
2023/09/11 11:53:29;;;;;;;;;;;;;;;;;;5078676;28;19908;-74
2023/09/11 11:55:55;;;;;;;;;;;;;;;;;;5093933;28;19911;-76
2023/09/11 11:58:21;;;;;;;;;;;;;;;;;;5091796;28;19923;-74
2023/09/11 12:00:47;;;;;;;;;;;;;;;;;;5093275;28;19908;-75
2023/09/11 12:03:13;;;;;;;;;;;;;;;;;;5094078;28;19995;-73
2023/09/11 12:05:39;;;;;;;;;;;;;;;;;;5093461;28;19920;-77
2023/09/11 12:08:05;;;;;;;;;;;;;;;;;;5093619;28;19912;-74
2023/09/11 12:10:31;;;;;;;;;;;;;;;;;;5107780;28;19908;-73
2023/09/11 12:12:57;;;;;;;;;;;;;;;;;;5092484;28;19913;-72
2023/09/11 12:15:23;;;;;;;;;;;;;;;;;;5094849;28;19914;-73
2023/09/11 12:17:49;;;;;;;;;;;;;;;;;;5103371;28;19927;-73
2023/09/11 12:20:15;;;;;;;;;;;;;;;;;;5093465;28;19924;-72
2023/09/11 12:22:41;;;;;;;;;;;;;;;;;;5093980;28;19934;-74
2023/09/11 12:25:07;;;;;;;;;;;;;;;;;;5093857;28;19916;-73
2023/09/11 12:27:33;;;;;;;;;;;;;;;;;;5092888;28;20368;-73
2023/09/11 12:29:59;;;;;;;;;;;;;;;;;;5101901;28;19912;-72
2023/09/11 12:32:25;;;;;;;;;;;;;;;;;;5101594;28;19966;-75
2023/09/11 12:34:51;;;;;;;;;;;;;;;;;;5092264;28;19912;-73
2023/09/11 12:37:17;;;;;;;;;;;;;;;;;;5093550;28;19966;-73
2023/09/11 12:39:43;;;;;;;;;;;;;;;;;;5107948;28;19923;-73
2023/09/11 12:42:09;;;;;;;;;;;;;;;;;;5093387;28;20002;-73
2023/09/11 12:44:35;;;;;;;;;;;;;;;;;;5098600;28;19912;-76
2023/09/11 12:47:01;;;;;;;;;;;;;;;;;;5094945;28;20284;-76
2023/09/11 12:49:27;;;;;;;;;;;;;;;;;;5108064;28;19916;-71
2023/09/11 12:51:54;;;;;;;;;;;;;;;;;;5101984;28;20268;-72
2023/09/11 12:54:20;;;;;;;;;;;;;;;;;;5095457;28;20094;-76
2023/09/11 12:56:46;;;;;;;;;;;;;;;;;;5112761;28;19955;-76
2023/09/11 12:59:12;;;;;;;;;;;;;;;;;;5110861;28;20367;-75
2023/09/11 13:01:38;;;;;;;;;;;;;;;;;;5113464;28;19908;-74
2023/09/11 13:04:04;;;;;;;;;;;;;;;;;;5112065;28;20316;-74
2023/09/11 13:06:30;;;;;;;;;;;;;;;;;;5112943;28;19908;-75
2023/09/11 13:08:56;;;;;;;;;;;;;;;;;;5113244;28;19952;-75
2023/09/11 13:11:22;;;;;;;;;;;;;;;;;;5112699;28;19908;-75
2023/09/11 13:13:48;;;;;;;;;;;;;;;;;;5112851;28;19908;-75
2023/09/11 13:16:14;;;;;;;;;;;;;;;;;;5114066;28;20000;-75
2023/09/11 13:18:40;;;;;;;;;;;;;;;;;;5113865;28;19919;-75
2023/09/11 13:21:06;;;;;;;;;;;;;;;;;;5114177;28;19912;-76
2023/09/11 13:23:32;;;;;;;;;;;;;;;;;;5113788;28;19934;-75
2023/09/11 13:25:57;;;;;;;;;;;;;;;;;;5114210;28;20348;-75
2023/09/11 13:28:23;;;;;;;;;;;;;;;;;;5112222;28;20366;-75
2023/09/11 13:30:49;;;;;;;;;;;;;;;;;;5111779;28;20367;-75
2023/09/11 13:33:15;;;;;;;;;;;;;;;;;;5111998;28;20374;-75
2023/09/11 13:35:41;;;;;;;;;;;;;;;;;;5111834;28;20348;-75
2023/09/11 13:38:07;;;;;;;;;;;;;;;;;;5111501;28;19908;-75
2023/09/11 13:40:33;;;;;;;;;;;;;;;;;;5111870;28;19916;-76
2023/09/11 13:42:59;;;;;;;;;;;;;;;;;;5113271;28;19908;-76
2023/09/11 13:45:25;;;;;;;;;;;;;;;;;;5114343;28;19919;-75
2023/09/11 13:47:52;;;;;;;;;;;;;;;;;;5116504;28;19908;-76
2023/09/11 13:50:18;;;;;;;;;;;;;;;;;;5117861;28;19907;-76
2023/09/11 13:52:44;;;;;;;;;;;;;;;;;;5116216;28;19918;-76
2023/09/11 13:55:10;;;;;;;;;;;;;;;;;;5118066;28;19953;-75
2023/09/11 13:57:36;;;;;;;;;;;;;;;;;;5118016;28;19908;-76
2023/09/11 14:00:03;;;;;;;;;;;;;;;;;;5117071;28;19920;-76
2023/09/11 14:02:29;;;;;;;;;;;;;;;;;;5117696;28;19930;-76
2023/09/11 14:04:55;;;;;;;;;;;;;;;;;;5117614;28;20355;-76
2023/09/11 14:07:21;;;;;;;;;;;;;;;;;;5117389;28;19961;-75
2023/09/11 14:09:47;;;;;;;;;;;;;;;;;;5118171;28;20348;-75
2023/09/11 14:12:13;;;;;;;;;;;;;;;;;;5116084;28;19915;-76
2023/09/11 14:14:39;;;;;;;;;;;;;;;;;;5117973;28;20007;-76
2023/09/11 14:17:05;;;;;;;;;;;;;;;;;;5117274;28;19918;-76
2023/09/11 14:19:31;;;;;;;;;;;;;;;;;;5116822;28;19916;-76
2023/09/11 14:21:57;;;;;;;;;;;;;;;;;;5117055;28;19915;-76
2023/09/11 14:24:23;;;;;;;;;;;;;;;;;;5117045;28;20002;-76
2023/09/11 14:26:49;;;;;;;;;;;;;;;;;;5115484;28;19907;-75
2023/09/11 14:29:15;;;;;;;;;;;;;;;;;;5117125;28;19918;-75
2023/09/11 14:31:41;;;;;;;;;;;;;;;;;;5115965;28;19914;-75
2023/09/11 14:34:07;;;;;;;;;;;;;;;;;;5117208;28;19944;-75
2023/09/11 14:36:33;;;;;;;;;;;;;;;;;;5117108;28;20364;-75
2023/09/11 14:38:59;;;;;;;;;;;;;;;;;;5115520;28;19916;-75
2023/09/11 14:41:25;;;;;;;;;;;;;;;;;;5116808;28;19918;-75
2023/09/11 14:43:51;;;;;;;;;;;;;;;;;;5117440;28;20330;-74
2023/09/11 14:46:17;;;;;;;;;;;;;;;;;;5115749;28;19953;-74
2023/09/11 14:48:43;;;;;;;;;;;;;;;;;;5116285;28;19912;-74
2023/09/11 14:51:09;;;;;;;;;;;;;;;;;;5115121;28;20006;-74
2023/09/11 14:53:35;;;;;;;;;;;;;;;;;;5116579;28;19936;-74
2023/09/11 14:56:01;;;;;;;;;;;;;;;;;;5115873;28;19931;-75
2023/09/11 14:58:27;;;;;;;;;;;;;;;;;;5115048;28;19919;-74
2023/09/11 15:00:53;;;;;;;;;;;;;;;;;;5115110;28;19943;-75
2023/09/11 15:03:19;;;;;;;;;;;;;;;;;;5115848;28;19930;-75
2023/09/11 15:05:45;;;;;;;;;;;;;;;;;;5116353;28;19912;-75
2023/09/11 15:08:12;;;;;;;;;;;;;;;;;;5116680;28;19911;-75
2023/09/11 15:10:42;;;;;;;;;;;;;;;;;;5115947;28;20314;-75
2023/09/11 15:13:08;;;;;;;;;;;;;;;;;;5116340;28;19908;-75
2023/09/11 15:15:34;;;;;;;;;;;;;;;;;;5115691;28;19930;-75
2023/09/11 15:18:00;;;;;;;;;;;;;;;;;;5115986;28;20419;-75
2023/09/11 15:20:26;;;;;;;;;;;;;;;;;;5115681;28;20015;-74
2023/09/11 15:22:52;;;;;;;;;;;;;;;;;;5115086;28;19931;-74
2023/09/11 15:25:18;;;;;;;;;;;;;;;;;;5074090;28;20011;-74
2023/09/11 15:27:44;;;;;;;;;;;;;;;;;;5074589;28;19909;-74
2023/09/11 15:30:09;;;;;;;;;;;;;;;;;;5074241;28;19909;-74
2023/09/11 15:32:36;;;;;;;;;;;;;;;;;;5073778;28;19962;-74
2023/09/11 15:35:02;;;;;;;;;;;;;;;;;;5075156;28;19944;-74
2023/09/11 15:37:31;;;;;;;;;;;;;;;;;;5074752;28;19999;-74
2023/09/11 15:39:57;;;;;;;;;;;;;;;;;;5074925;28;19923;-74
2023/09/11 15:42:22;;;;;;;;;;;;;;;;;;5073022;28;19991;-74
2023/09/11 15:44:50;;;;;;;;;;;;;;;;;;5073037;28;19908;-74
2023/09/11 15:47:16;;;;;;;;;;;;;;;;;;5073599;28;19935;-74
2023/09/11 15:49:42;;;;;;;;;;;;;;;;;;5072308;28;20365;-74
2023/09/11 15:52:07;;;;;;;;;;;;;;;;;;5073405;28;20383;-74
2023/09/11 15:54:33;;;;;;;;;;;;;;;;;;5073836;28;20308;-75
2023/09/11 15:56:59;;;;;;;;;;;;;;;;;;5072930;28;19908;-75
2023/09/11 15:59:25;;;;;;;;;;;;;;;;;;5074155;28;20299;-75
2023/09/11 16:01:51;;;;;;;;;;;;;;;;;;5074587;28;19908;-75
2023/09/11 16:04:17;;;;;;;;;;;;;;;;;;5073526;28;19991;-74
2023/09/11 16:06:44;;;;;;;;;;;;;;;;;;5072770;28;20356;-74
2023/09/11 16:09:09;;;;;;;;;;;;;;;;;;5074078;28;19909;-73
2023/09/11 16:11:35;;;;;;;;;;;;;;;;;;5074370;28;19939;-73
2023/09/11 16:14:01;;;;;;;;;;;;;;;;;;5072649;28;19998;-73
2023/09/11 16:16:28;;;;;;;;;;;;;;;;;;5074205;28;19954;-73
2023/09/11 16:18:54;;;;;;;;;;;;;;;;;;5073902;28;19919;-74
2023/09/11 16:21:20;;;;;;;;;;;;;;;;;;5074275;28;19908;-74
2023/09/11 16:23:47;;;;;;;;;;;;;;;;;;5074163;28;19961;-74
2023/09/11 16:26:13;;;;;;;;;;;;;;;;;;5072446;28;19973;-73
2023/09/11 16:28:39;;;;;;;;;;;;;;;;;;5074603;28;20305;-73
2023/09/11 16:31:05;;;;;;;;;;;;;;;;;;5074092;28;19912;-73
2023/09/11 16:33:31;;;;;;;;;;;;;;;;;;5073613;28;20276;-73
2023/09/11 16:35:57;;;;;;;;;;;;;;;;;;5073968;28;20021;-73
2023/09/11 16:38:23;;;;;;;;;;;;;;;;;;5073836;28;19915;-73
2023/09/11 16:40:49;;;;;;;;;;;;;;;;;;5072272;28;19943;-73
2023/09/11 16:43:15;;;;;;;;;;;;;;;;;;5074166;28;19913;-73
2023/09/11 16:45:41;;;;;;;;;;;;;;;;;;5073808;28;20425;-72
2023/09/11 16:48:07;;;;;;;;;;;;;;;;;;5073743;28;20357;-71
2023/09/11 16:50:33;;;;;;;;;;;;;;;;;;5073837;28;20434;-71
2023/09/11 16:52:59;;;;;;;;;;;;;;;;;;5073780;28;19974;-71
2023/09/11 16:55:25;;;;;;;;;;;;;;;;;;5073298;28;19946;-71
2023/09/11 16:57:51;;;;;;;;;;;;;;;;;;5073657;28;19953;-71
2023/09/11 17:00:17;;;;;;;;;;;;;;;;;;5073025;28;19921;-70
2023/09/11 17:02:44;;;;;;;;;;;;;;;;;;5073225;28;19946;-71
2023/09/11 17:05:10;;;;;;;;;;;;;;;;;;5073626;28;20387;-71
2023/09/11 17:07:36;;;;;;;;;;;;;;;;;;5073694;28;19912;-71
2023/09/11 17:10:03;;;;;;;;;;;;;;;;;;5073233;28;19995;-71
2023/09/11 17:12:29;;;;;;;;;;;;;;;;;;5073623;28;19916;-71
2023/09/11 17:14:55;;;;;;;;;;;;;;;;;;5073569;28;19916;-72
2023/09/11 17:17:21;;;;;;;;;;;;;;;;;;5073069;28;20356;-72
2023/09/11 17:19:47;;;;;;;;;;;;;;;;;;5073386;28;19916;-72
2023/09/11 17:22:16;;;;;;;;;;;;;;;;;;5077188;28;20004;-72
2023/09/11 17:24:42;;;;;;;;;;;;;;;;;;5077380;28;19909;-72
2023/09/11 17:28:29;;;;;;;;;;;;;;;;;;5112003;27;19922;-70
2023/09/11 17:30:55;;;;;;;;;;;;;;;;;;5111357;28;19999;-71
2023/09/11 17:33:20;;;;;;;;;;;;;;;;;;5111656;28;19961;-71
2023/09/11 17:35:46;;;;;;;;;;;;;;;;;;5111018;28;19976;-72
2023/09/11 17:38:12;;;;;;;;;;;;;;;;;;5111184;28;19908;-72
2023/09/11 17:40:38;;;;;;;;;;;;;;;;;;5111524;28;19912;-72
2023/09/11 17:45:16;;;;;;;;;;;;;;;;;;5111346;27;19922;-73
2023/09/11 17:47:42;;;;;;;;;;;;;;;;;;5111682;28;20003;-73
2023/09/11 17:50:08;;;;;;;;;;;;;;;;;;5111797;28;19912;-73
2023/09/11 17:54:15;;;;;;;;;;;;;;;;;;5111904;27;19916;-72
2023/09/11 17:56:41;;;;;;;;;;;;;;;;;;5111711;28;20007;-71
2023/09/11 17:59:07;;;;;;;;;;;;;;;;;;5111285;28;19951;-71
2023/09/11 18:03:57;;;;;;;;;;;;;;;;;;5111736;27;20406;-71
2023/09/11 18:06:25;;;;;;;;;;;;;;;;;;5111070;28;19958;-71
2023/09/11 18:08:51;;;;;;;;;;;;;;;;;;5110157;28;20329;-71
2023/09/11 18:11:17;;;;;;;;;;;;;;;;;;5111256;28;19912;-72
2023/09/11 18:13:44;;;;;;;;;;;;;;;;;;5110513;28;20376;-71
2023/09/11 18:16:10;;;;;;;;;;;;;;;;;;5110743;28;19961;-72
2023/09/11 18:18:36;;;;;;;;;;;;;;;;;;5109091;28;19908;-71
2023/09/11 18:21:02;;;;;;;;;;;;;;;;;;5110646;28;19914;-71
2023/09/11 18:23:28;;;;;;;;;;;;;;;;;;5111186;28;20376;-71
2023/09/11 18:25:54;;;;;;;;;;;;;;;;;;5110889;28;19944;-73
2023/09/11 18:28:20;;;;;;;;;;;;;;;;;;5111286;28;20391;-71
2023/09/11 18:30:46;;;;;;;;;;;;;;;;;;5111258;28;19915;-73
2023/09/11 18:33:12;;;;;;;;;;;;;;;;;;5111073;28;19941;-71
2023/09/11 18:37:09;;;;;;;;;;;;;;;;;;5091396;27;19912;-72
2023/09/11 18:40:34;;;;;;;;;;;;;;;;;;5111662;27;19923;-72
2023/09/11 18:43:00;;;;;;;;;;;;;;;;;;5110424;28;20355;-72
2023/09/11 18:48:28;;;;;;;;;;;;;;;;;;5152520;27;20023;-70
2023/09/11 18:53:10;;;;;;;;;;;;;;;;;;5112048;27;19916;-71
2023/09/11 18:55:36;;;;;;;;;;;;;;;;;;5111403;28;20328;-71
2023/09/11 18:59:11;;;;;;;;;;;;;;;;;;5153068;27;20021;-71
2023/09/11 19:04:04;;;;;;;;;;;;;;;;;;5111719;27;20299;-72
2023/09/11 19:06:30;;;;;;;;;;;;;;;;;;5111919;28;20002;-72
2023/09/11 19:09:01;;;;;;;;;;;;;;;;;;5111292;28;20288;-72
2023/09/11 19:11:28;;;;;;;;;;;;;;;;;;5110372;28;19908;-72
2023/09/11 19:13:54;;;;;;;;;;;;;;;;;;5111506;28;19912;-72
2023/09/11 19:16:20;;;;;;;;;;;;;;;;;;5111065;28;19908;-70
2023/09/11 19:21:42;;;;;;;;;;;;;;;;;;5071152;28;19923;-72
2023/09/11 19:24:08;;;;;;;;;;;;;;;;;;5071092;28;19963;-73
2023/09/11 19:26:34;;;;;;;;;;;;;;;;;;5071109;28;19908;-71
2023/09/11 19:29:00;;;;;;;;;;;;;;;;;;5070668;28;19915;-73